sensor_id;sensor_type;location;lat;lon;timestamp;pressure;altitude;pressure_sealevel;temperature;humidity
7376;BME280;3728;42.266;24.944;2024-01-15T00:01:16;99162.22;;;-1.24;87.48
7376;BME280;3728;42.266;24.944;2024-01-15T00:03:44;99165.97;;;-1.15;87.27
7376;BME280;3728;42.266;24.944;2024-01-15T00:06:13;99167.16;;;-1.06;86.22
7376;BME280;3728;42.266;24.944;2024-01-15T00:08:41;99159.84;;;-1.14;86.79
7376;BME280;3728;42.266;24.944;2024-01-15T00:11:08;99150.25;;;-1.18;86.98
7376;BME280;3728;42.266;24.944;2024-01-15T00:13:35;99164.66;;;-1.17;86.51
7376;BME280;3728;42.266;24.944;2024-01-15T00:16:04;99157.44;;;-1.20;86.67
7376;BME280;3728;42.266;24.944;2024-01-15T00:18:35;99169.09;;;-1.13;87.57
7376;BME280;3728;42.266;24.944;2024-01-15T00:21:02;99157.44;;;-1.20;86.87
7376;BME280;3728;42.266;24.944;2024-01-15T00:23:30;99156.19;;;-1.18;87.52
7376;BME280;3728;42.266;24.944;2024-01-15T00:25:57;99157.91;;;-1.07;86.95
7376;BME280;3728;42.266;24.944;2024-01-15T00:28:24;99155.69;;;-1.15;87.65
7376;BME280;3728;42.266;24.944;2024-01-15T00:30:51;99164.41;;;-1.32;87.77
7376;BME280;3728;42.266;24.944;2024-01-15T00:33:18;99164.09;;;-1.36;88.46
7376;BME280;3728;42.266;24.944;2024-01-15T00:35:45;99164.09;;;-1.36;88.21
7376;BME280;3728;42.266;24.944;2024-01-15T00:38:13;99159.34;;;-1.44;88.93
7376;BME280;3728;42.266;24.944;2024-01-15T00:40:40;99169.22;;;-1.36;89.03
7376;BME280;3728;42.266;24.944;2024-01-15T00:43:07;99166.09;;;-1.38;88.66
7376;BME280;3728;42.266;24.944;2024-01-15T00:45:34;99158.41;;;-1.38;88.29
7376;BME280;3728;42.266;24.944;2024-01-15T00:48:01;99154.66;;;-1.47;88.50
7376;BME280;3728;42.266;24.944;2024-01-15T00:50:29;99154.97;;;-1.44;88.65
7376;BME280;3728;42.266;24.944;2024-01-15T00:52:56;99153.09;;;-1.48;89.59
7376;BME280;3728;42.266;24.944;2024-01-15T00:55:22;99157.34;;;-1.25;87.99
7376;BME280;3728;42.266;24.944;2024-01-15T00:57:49;99155.94;;;-1.33;87.69
7376;BME280;3728;42.266;24.944;2024-01-15T01:00:17;99157.06;;;-1.41;87.71
7376;BME280;3728;42.266;24.944;2024-01-15T01:02:44;99154.75;;;-1.42;87.89
7376;BME280;3728;42.266;24.944;2024-01-15T01:05:12;99148.66;;;-1.36;88.36
7376;BME280;3728;42.266;24.944;2024-01-15T01:07:40;99153.88;;;-1.48;88.82
7376;BME280;3728;42.266;24.944;2024-01-15T01:10:07;99152.88;;;-1.47;89.42
7376;BME280;3728;42.266;24.944;2024-01-15T01:12:35;99154.66;;;-1.47;89.36
7376;BME280;3728;42.266;24.944;2024-01-15T01:15:02;99156.00;;;-1.28;88.15
7376;BME280;3728;42.266;24.944;2024-01-15T01:17:30;99153.78;;;-1.53;87.64
7376;BME280;3728;42.266;24.944;2024-01-15T01:19:57;99150.81;;;-1.61;88.78
7376;BME280;3728;42.266;24.944;2024-01-15T01:22:25;99149.25;;;-1.62;89.58
7376;BME280;3728;42.266;24.944;2024-01-15T01:24:52;99146.31;;;-1.54;89.99
7376;BME280;3728;42.266;24.944;2024-01-15T01:27:19;99141.47;;;-1.51;89.63
7376;BME280;3728;42.266;24.944;2024-01-15T01:29:46;99144.38;;;-1.47;89.24
7376;BME280;3728;42.266;24.944;2024-01-15T01:32:13;99136.03;;;-1.54;88.76
7376;BME280;3728;42.266;24.944;2024-01-15T01:34:41;99141.53;;;-1.62;89.69
7376;BME280;3728;42.266;24.944;2024-01-15T01:37:12;99142.75;;;-1.53;89.41
7376;BME280;3728;42.266;24.944;2024-01-15T01:39:43;99139.16;;;-1.52;89.62
7376;BME280;3728;42.266;24.944;2024-01-15T01:42:11;99135.25;;;-1.55;89.06
7376;BME280;3728;42.266;24.944;2024-01-15T01:44:38;99133.38;;;-1.59;89.31
7376;BME280;3728;42.266;24.944;2024-01-15T01:47:05;99128.69;;;-1.62;89.30
7376;BME280;3728;42.266;24.944;2024-01-15T01:49:33;99131.06;;;-1.61;89.60
7376;BME280;3728;42.266;24.944;2024-01-15T01:52:05;99119.47;;;-1.63;90.38
7376;BME280;3728;42.266;24.944;2024-01-15T01:54:33;99129.63;;;-1.68;91.23
7376;BME280;3728;42.266;24.944;2024-01-15T01:57:02;99121.84;;;-1.73;91.14
7376;BME280;3728;42.266;24.944;2024-01-15T01:59:30;99114.69;;;-1.71;91.30
7376;BME280;3728;42.266;24.944;2024-01-15T02:02:00;99126.81;;;-1.67;90.57
7376;BME280;3728;42.266;24.944;2024-01-15T02:04:27;99118.75;;;-1.59;90.56
7376;BME280;3728;42.266;24.944;2024-01-15T02:06:54;99122.66;;;-1.56;90.03
7376;BME280;3728;42.266;24.944;2024-01-15T02:09:22;99128.75;;;-1.46;89.20
7376;BME280;3728;42.266;24.944;2024-01-15T02:11:49;99119.41;;;-1.52;89.92
7376;BME280;3728;42.266;24.944;2024-01-15T02:14:17;99118.84;;;-1.54;89.54
7376;BME280;3728;42.266;24.944;2024-01-15T02:16:44;99115.50;;;-1.54;90.04
7376;BME280;3728;42.266;24.944;2024-01-15T02:19:17;99104.59;;;-1.61;90.42
7376;BME280;3728;42.266;24.944;2024-01-15T02:21:45;99099.66;;;-1.51;89.77
7376;BME280;3728;42.266;24.944;2024-01-15T02:24:12;99088.25;;;-1.55;90.38
7376;BME280;3728;42.266;24.944;2024-01-15T02:26:39;99096.13;;;-1.45;89.75
7376;BME280;3728;42.266;24.944;2024-01-15T02:29:07;99089.38;;;-1.51;89.29
7376;BME280;3728;42.266;24.944;2024-01-15T02:31:36;99085.84;;;-1.62;89.64
7376;BME280;3728;42.266;24.944;2024-01-15T02:34:03;99087.25;;;-1.71;90.21
7376;BME280;3728;42.266;24.944;2024-01-15T02:36:30;99098.28;;;-1.70;90.63
7376;BME280;3728;42.266;24.944;2024-01-15T02:38:58;99104.88;;;-1.74;90.48
7376;BME280;3728;42.266;24.944;2024-01-15T02:41:24;99093.50;;;-1.78;91.09
7376;BME280;3728;42.266;24.944;2024-01-15T02:43:52;99095.22;;;-1.84;92.16
7376;BME280;3728;42.266;24.944;2024-01-15T02:46:19;99101.41;;;-1.68;92.11
7376;BME280;3728;42.266;24.944;2024-01-15T02:48:49;99095.56;;;-1.64;91.78
7376;BME280;3728;42.266;24.944;2024-01-15T02:51:16;99098.94;;;-1.63;91.27
7376;BME280;3728;42.266;24.944;2024-01-15T02:53:43;99096.72;;;-1.71;91.38
7376;BME280;3728;42.266;24.944;2024-01-15T02:56:10;99097.91;;;-1.62;91.32
7376;BME280;3728;42.266;24.944;2024-01-15T02:58:37;99093.25;;;-1.65;92.41
7376;BME280;3728;42.266;24.944;2024-01-15T03:01:04;99096.91;;;-1.61;92.12
7376;BME280;3728;42.266;24.944;2024-01-15T03:03:31;99106.94;;;-1.60;92.71
7376;BME280;3728;42.266;24.944;2024-01-15T03:06:01;99103.50;;;-1.65;92.39
7376;BME280;3728;42.266;24.944;2024-01-15T03:08:28;99100.63;;;-1.69;92.99
7376;BME280;3728;42.266;24.944;2024-01-15T03:10:56;99092.38;;;-1.71;93.24
7376;BME280;3728;42.266;24.944;2024-01-15T03:13:22;99084.91;;;-1.72;93.88
7376;BME280;3728;42.266;24.944;2024-01-15T03:15:49;99075.78;;;-1.80;92.90
7376;BME280;3728;42.266;24.944;2024-01-15T03:18:17;99082.59;;;-1.85;93.89
7376;BME280;3728;42.266;24.944;2024-01-15T03:20:44;99080.84;;;-1.85;93.68
7376;BME280;3728;42.266;24.944;2024-01-15T03:23:11;99070.97;;;-1.76;93.12
7376;BME280;3728;42.266;24.944;2024-01-15T03:25:38;99076.50;;;-1.68;92.05
7376;BME280;3728;42.266;24.944;2024-01-15T03:28:05;99078.47;;;-1.58;91.31
7376;BME280;3728;42.266;24.944;2024-01-15T03:30:32;99089.13;;;-1.66;91.20
7376;BME280;3728;42.266;24.944;2024-01-15T03:32:59;99089.94;;;-1.77;91.20
7376;BME280;3728;42.266;24.944;2024-01-15T03:35:26;99077.19;;;-1.89;92.09
7376;BME280;3728;42.266;24.944;2024-01-15T03:37:56;99070.47;;;-1.90;93.83
7376;BME280;3728;42.266;24.944;2024-01-15T03:40:23;99077.56;;;-1.80;93.01
7376;BME280;3728;42.266;24.944;2024-01-15T03:42:50;99076.78;;;-1.81;92.63
7376;BME280;3728;42.266;24.944;2024-01-15T03:45:17;99073.03;;;-1.90;92.29
7376;BME280;3728;42.266;24.944;2024-01-15T03:47:45;99084.09;;;-1.89;91.62
7376;BME280;3728;42.266;24.944;2024-01-15T03:50:12;99080.22;;;-2.03;90.96
7376;BME280;3728;42.266;24.944;2024-01-15T03:52:40;99092.44;;;-2.22;90.46
7376;BME280;3728;42.266;24.944;2024-01-15T03:55:07;99089.25;;;-2.41;91.59
7376;BME280;3728;42.266;24.944;2024-01-15T03:57:34;99089.25;;;-2.41;93.06
7376;BME280;3728;42.266;24.944;2024-01-15T04:00:01;99091.69;;;-2.34;92.55
7376;BME280;3728;42.266;24.944;2024-01-15T04:02:30;99089.47;;;-2.42;92.50
7376;BME280;3728;42.266;24.944;2024-01-15T04:04:57;99084.72;;;-2.50;92.93
7376;BME280;3728;42.266;24.944;2024-01-15T04:07:24;99088.25;;;-2.40;92.03
7376;BME280;3728;42.266;24.944;2024-01-15T04:09:51;99093.06;;;-2.55;91.90
7376;BME280;3728;42.266;24.944;2024-01-15T04:12:19;99099.31;;;-2.51;92.14
7376;BME280;3728;42.266;24.944;2024-01-15T04:14:46;99108.84;;;-2.35;92.77
7376;BME280;3728;42.266;24.944;2024-01-15T04:17:13;99095.44;;;-2.14;91.01
7376;BME280;3728;42.266;24.944;2024-01-15T04:19:40;99089.19;;;-2.18;90.60
7376;BME280;3728;42.266;24.944;2024-01-15T04:22:10;99088.09;;;-2.22;91.00
7376;BME280;3728;42.266;24.944;2024-01-15T04:24:38;99080.22;;;-2.32;91.75
7376;BME280;3728;42.266;24.944;2024-01-15T04:27:06;99086.22;;;-2.26;91.98
7376;BME280;3728;42.266;24.944;2024-01-15T04:29:33;99079.38;;;-2.21;91.54
7376;BME280;3728;42.266;24.944;2024-01-15T04:32:04;99072.59;;;-2.15;91.97
7376;BME280;3728;42.266;24.944;2024-01-15T04:34:31;99065.53;;;-2.08;91.47
7376;BME280;3728;42.266;24.944;2024-01-15T04:36:58;99061.88;;;-2.12;91.12
7376;BME280;3728;42.266;24.944;2024-01-15T04:39:25;99068.69;;;-2.18;91.21
7376;BME280;3728;42.266;24.944;2024-01-15T04:41:52;99065.09;;;-2.17;91.46
7376;BME280;3728;42.266;24.944;2024-01-15T04:44:19;99063.59;;;-2.29;91.25
7376;BME280;3728;42.266;24.944;2024-01-15T04:46:46;99062.16;;;-2.37;91.62
7376;BME280;3728;42.266;24.944;2024-01-15T04:49:13;99052.91;;;-2.38;91.34
7376;BME280;3728;42.266;24.944;2024-01-15T04:51:40;99055.25;;;-2.36;91.11
7376;BME280;3728;42.266;24.944;2024-01-15T04:54:07;99053.88;;;-2.27;89.78
7376;BME280;3728;42.266;24.944;2024-01-15T04:56:36;99062.63;;;-2.51;90.15
7376;BME280;3728;42.266;24.944;2024-01-15T04:59:03;99061.69;;;-2.73;90.42
7376;BME280;3728;42.266;24.944;2024-01-15T05:01:31;99062.13;;;-2.88;91.24
7376;BME280;3728;42.266;24.944;2024-01-15T05:03:59;99058.66;;;-2.94;92.05
7376;BME280;3728;42.266;24.944;2024-01-15T05:06:26;99057.44;;;-2.91;93.01
7376;BME280;3728;42.266;24.944;2024-01-15T05:08:53;99048.09;;;-2.86;92.97
7376;BME280;3728;42.266;24.944;2024-01-15T05:11:20;99053.66;;;-2.77;92.79
7376;BME280;3728;42.266;24.944;2024-01-15T05:13:47;99068.47;;;-2.67;92.47
7376;BME280;3728;42.266;24.944;2024-01-15T05:16:14;99064.91;;;-2.66;91.72
7376;BME280;3728;42.266;24.944;2024-01-15T05:18:41;99069.28;;;-2.90;91.70
7376;BME280;3728;42.266;24.944;2024-01-15T05:21:11;99058.88;;;-2.72;92.37
7376;BME280;3728;42.266;24.944;2024-01-15T05:23:38;99056.56;;;-2.73;92.58
7376;BME280;3728;42.266;24.944;2024-01-15T05:26:05;99052.63;;;-2.64;92.14
7376;BME280;3728;42.266;24.944;2024-01-15T05:28:33;99049.38;;;-2.48;91.38
7376;BME280;3728;42.266;24.944;2024-01-15T05:31:00;99031.66;;;-2.50;91.80
7376;BME280;3728;42.266;24.944;2024-01-15T05:33:27;99029.19;;;-2.45;91.26
7376;BME280;3728;42.266;24.944;2024-01-15T05:35:54;99034.94;;;-2.38;90.91
7376;BME280;3728;42.266;24.944;2024-01-15T05:38:21;99039.50;;;-2.28;90.59
7376;BME280;3728;42.266;24.944;2024-01-15T05:40:48;99030.16;;;-2.34;90.33
7376;BME280;3728;42.266;24.944;2024-01-15T05:43:15;99026.28;;;-2.37;90.78
7376;BME280;3728;42.266;24.944;2024-01-15T05:45:45;99032.53;;;-2.44;89.96
7376;BME280;3728;42.266;24.944;2024-01-15T05:48:12;99019.41;;;-2.48;90.49
7376;BME280;3728;42.266;24.944;2024-01-15T05:50:39;99008.41;;;-2.60;91.28
7376;BME280;3728;42.266;24.944;2024-01-15T05:53:09;99009.72;;;-2.57;91.27
7376;BME280;3728;42.266;24.944;2024-01-15T05:55:36;98996.13;;;-2.58;91.86
7376;BME280;3728;42.266;24.944;2024-01-15T05:58:04;99002.91;;;-2.52;91.99
7376;BME280;3728;42.266;24.944;2024-01-15T06:00:33;99001.75;;;-2.44;92.23
7376;BME280;3728;42.266;24.944;2024-01-15T06:03:02;99005.66;;;-2.42;91.52
7376;BME280;3728;42.266;24.944;2024-01-15T06:05:29;99009.75;;;-2.29;90.37
7376;BME280;3728;42.266;24.944;2024-01-15T06:07:56;99025.00;;;-2.23;90.11
7376;BME280;3728;42.266;24.944;2024-01-15T06:10:23;99026.47;;;-2.27;89.77
7376;BME280;3728;42.266;24.944;2024-01-15T06:12:50;99026.13;;;-2.30;89.99
7376;BME280;3728;42.266;24.944;2024-01-15T06:15:17;99031.00;;;-2.17;90.07
7376;BME280;3728;42.266;24.944;2024-01-15T06:17:44;99034.22;;;-2.10;90.78
7376;BME280;3728;42.266;24.944;2024-01-15T06:20:12;99034.38;;;-2.00;91.15
7376;BME280;3728;42.266;24.944;2024-01-15T06:22:39;99015.56;;;-2.05;91.22
7376;BME280;3728;42.266;24.944;2024-01-15T06:25:07;99007.31;;;-2.08;92.03
7376;BME280;3728;42.266;24.944;2024-01-15T06:27:35;98995.44;;;-1.97;91.95
7376;BME280;3728;42.266;24.944;2024-01-15T06:30:02;99009.94;;;-2.02;91.73
7376;BME280;3728;42.266;24.944;2024-01-15T06:32:29;99014.00;;;-2.07;92.09
7376;BME280;3728;42.266;24.944;2024-01-15T06:34:57;99026.13;;;-2.02;92.03
7376;BME280;3728;42.266;24.944;2024-01-15T06:37:24;99037.56;;;-1.93;91.88
7376;BME280;3728;42.266;24.944;2024-01-15T06:39:51;99051.84;;;-1.69;90.58
7376;BME280;3728;42.266;24.944;2024-01-15T06:42:18;99041.91;;;-1.65;89.92
7376;BME280;3728;42.266;24.944;2024-01-15T06:44:45;99042.81;;;-1.71;90.61
7376;BME280;3728;42.266;24.944;2024-01-15T06:47:12;99046.44;;;-1.56;90.09
7376;BME280;3728;42.266;24.944;2024-01-15T06:49:41;99044.78;;;-1.45;89.31
7376;BME280;3728;42.266;24.944;2024-01-15T06:52:08;99055.31;;;-1.47;89.58
7376;BME280;3728;42.266;24.944;2024-01-15T06:54:35;99058.97;;;-1.26;88.63
7376;BME280;3728;42.266;24.944;2024-01-15T06:57:02;99057.44;;;-0.89;86.27
7376;BME280;3728;42.266;24.944;2024-01-15T06:59:29;99046.66;;;-1.24;87.36
7376;BME280;3728;42.266;24.944;2024-01-15T07:01:56;99045.56;;;-1.28;88.12
7376;BME280;3728;42.266;24.944;2024-01-15T07:04:23;99036.63;;;-1.42;88.80
7376;BME280;3728;42.266;24.944;2024-01-15T07:06:50;99041.69;;;-1.47;88.69
7376;BME280;3728;42.266;24.944;2024-01-15T07:09:17;99034.84;;;-1.58;89.27
7376;BME280;3728;42.266;24.944;2024-01-15T07:11:45;99028.06;;;-1.64;90.19
7376;BME280;3728;42.266;24.944;2024-01-15T07:14:15;99030.41;;;-1.63;91.73
7376;BME280;3728;42.266;24.944;2024-01-15T07:16:42;99023.09;;;-1.54;92.41
7376;BME280;3728;42.266;24.944;2024-01-15T07:19:14;99034.22;;;-1.49;92.32
7376;BME280;3728;42.266;24.944;2024-01-15T07:21:41;99031.00;;;-1.22;91.77
7376;BME280;3728;42.266;24.944;2024-01-15T07:24:10;99030.97;;;-1.06;92.24
7376;BME280;3728;42.266;24.944;2024-01-15T07:26:37;99034.72;;;-0.97;91.73
7376;BME280;3728;42.266;24.944;2024-01-15T07:29:04;99031.03;;;-0.84;89.06
7376;BME280;3728;42.266;24.944;2024-01-15T07:31:31;99026.88;;;-0.68;87.79
7376;BME280;3728;42.266;24.944;2024-01-15T07:33:59;99037.00;;;-0.79;87.66
7376;BME280;3728;42.266;24.944;2024-01-15T07:36:27;99045.50;;;-0.78;87.99
7376;BME280;3728;42.266;24.944;2024-01-15T07:38:54;99036.72;;;-0.60;87.75
7376;BME280;3728;42.266;24.944;2024-01-15T07:41:21;99032.72;;;-0.51;87.44
7376;BME280;3728;42.266;24.944;2024-01-15T07:43:49;99035.75;;;-0.33;87.51
7376;BME280;3728;42.266;24.944;2024-01-15T07:46:16;99031.78;;;-0.19;86.97
7376;BME280;3728;42.266;24.944;2024-01-15T07:48:43;99041.41;;;-0.09;85.82
7376;BME280;3728;42.266;24.944;2024-01-15T07:51:10;99033.38;;;0.09;85.11
7376;BME280;3728;42.266;24.944;2024-01-15T07:53:39;99038.66;;;0.24;86.12
7376;BME280;3728;42.266;24.944;2024-01-15T07:56:06;99045.81;;;0.49;85.63
7376;BME280;3728;42.266;24.944;2024-01-15T07:58:34;99048.66;;;0.84;85.23
7376;BME280;3728;42.266;24.944;2024-01-15T08:01:01;99051.88;;;1.01;83.99
7376;BME280;3728;42.266;24.944;2024-01-15T08:03:28;99067.09;;;1.03;82.51
7376;BME280;3728;42.266;24.944;2024-01-15T08:05:56;99059.91;;;1.10;81.40
7376;BME280;3728;42.266;24.944;2024-01-15T08:08:25;99061.47;;;1.16;81.94
7376;BME280;3728;42.266;24.944;2024-01-15T08:10:57;99055.81;;;1.14;81.51
7376;BME280;3728;42.266;24.944;2024-01-15T08:13:26;99072.44;;;1.38;81.52
7376;BME280;3728;42.266;24.944;2024-01-15T08:15:54;99077.59;;;1.38;80.24
7376;BME280;3728;42.266;24.944;2024-01-15T08:18:21;99091.06;;;1.45;80.16
7376;BME280;3728;42.266;24.944;2024-01-15T08:20:49;99089.44;;;1.86;80.11
7376;BME280;3728;42.266;24.944;2024-01-15T08:23:21;99084.78;;;1.98;78.73
7376;BME280;3728;42.266;24.944;2024-01-15T08:25:48;99088.00;;;2.40;75.70
7376;BME280;3728;42.266;24.944;2024-01-15T08:28:15;99088.75;;;2.36;75.72
7376;BME280;3728;42.266;24.944;2024-01-15T08:30:46;99096.03;;;2.59;72.61
7376;BME280;3728;42.266;24.944;2024-01-15T08:33:24;99089.28;;;2.48;73.20
7376;BME280;3728;42.266;24.944;2024-01-15T08:35:51;99082.59;;;2.42;73.79
7376;BME280;3728;42.266;24.944;2024-01-15T08:38:19;99083.13;;;2.54;74.51
7376;BME280;3728;42.266;24.944;2024-01-15T08:40:46;99082.03;;;2.30;75.55
7376;BME280;3728;42.266;24.944;2024-01-15T08:43:13;99081.28;;;2.54;75.17
7376;BME280;3728;42.266;24.944;2024-01-15T08:45:40;99070.16;;;2.34;76.14
7376;BME280;3728;42.266;24.944;2024-01-15T08:48:07;99061.38;;;2.35;76.86
7376;BME280;3728;42.266;24.944;2024-01-15T08:50:35;99073.00;;;2.52;75.43
7376;BME280;3728;42.266;24.944;2024-01-15T08:53:02;99061.91;;;2.37;76.06
7376;BME280;3728;42.266;24.944;2024-01-15T08:55:29;99072.78;;;2.84;72.72
7376;BME280;3728;42.266;24.944;2024-01-15T08:57:56;99065.50;;;2.41;74.51
7376;BME280;3728;42.266;24.944;2024-01-15T09:00:23;99057.00;;;2.55;73.41
7376;BME280;3728;42.266;24.944;2024-01-15T09:02:50;99045.34;;;2.43;75.74
7376;BME280;3728;42.266;24.944;2024-01-15T09:05:17;99043.03;;;2.87;73.34
7376;BME280;3728;42.266;24.944;2024-01-15T09:07:45;99035.03;;;2.53;74.93
7376;BME280;3728;42.266;24.944;2024-01-15T09:10:13;99029.56;;;2.19;76.02
7376;BME280;3728;42.266;24.944;2024-01-15T09:12:40;99032.16;;;2.24;76.92
7376;BME280;3728;42.266;24.944;2024-01-15T09:15:07;99035.03;;;2.73;75.77
7376;BME280;3728;42.266;24.944;2024-01-15T09:17:35;99016.19;;;2.42;77.17
7376;BME280;3728;42.266;24.944;2024-01-15T09:20:02;99013.06;;;2.25;78.50
7376;BME280;3728;42.266;24.944;2024-01-15T09:22:31;98999.13;;;2.16;78.98
7376;BME280;3728;42.266;24.944;2024-01-15T09:24:58;98990.59;;;2.26;79.76
7376;BME280;3728;42.266;24.944;2024-01-15T09:27:25;98988.53;;;2.28;79.58
7376;BME280;3728;42.266;24.944;2024-01-15T09:29:53;98975.09;;;2.31;79.68
7376;BME280;3728;42.266;24.944;2024-01-15T09:32:20;98969.13;;;2.40;79.64
7376;BME280;3728;42.266;24.944;2024-01-15T09:34:47;98967.59;;;2.49;79.36
7376;BME280;3728;42.266;24.944;2024-01-15T09:37:15;98967.34;;;2.51;79.91
7376;BME280;3728;42.266;24.944;2024-01-15T09:40:05;98962.66;;;2.63;80.15
7376;BME280;3728;42.266;24.944;2024-01-15T09:42:34;98977.09;;;2.84;80.40
7376;BME280;3728;42.266;24.944;2024-01-15T09:45:02;98972.44;;;2.91;79.22
7376;BME280;3728;42.266;24.944;2024-01-15T09:47:33;98977.28;;;3.18;78.46
7376;BME280;3728;42.266;24.944;2024-01-15T09:50:01;98965.84;;;3.24;78.41
7376;BME280;3728;42.266;24.944;2024-01-15T09:52:30;98962.97;;;3.30;78.29
7376;BME280;3728;42.266;24.944;2024-01-15T09:54:58;98965.19;;;3.52;78.02
7376;BME280;3728;42.266;24.944;2024-01-15T09:57:32;98963.28;;;3.73;77.36
7376;BME280;3728;42.266;24.944;2024-01-15T10:00:03;98949.75;;;3.81;77.08
7376;BME280;3728;42.266;24.944;2024-01-15T10:02:31;98940.47;;;3.75;75.30
7376;BME280;3728;42.266;24.944;2024-01-15T10:04:59;98940.78;;;3.68;76.99
7376;BME280;3728;42.266;24.944;2024-01-15T10:07:27;98947.84;;;3.96;78.71
7376;BME280;3728;42.266;24.944;2024-01-15T10:09:55;98929.38;;;4.03;77.33
7376;BME280;3728;42.266;24.944;2024-01-15T10:12:23;98933.56;;;3.99;77.02
7376;BME280;3728;42.266;24.944;2024-01-15T10:14:51;98945.00;;;3.98;77.04
7376;BME280;3728;42.266;24.944;2024-01-15T10:17:18;98937.34;;;3.78;78.50
7376;BME280;3728;42.266;24.944;2024-01-15T10:19:45;98930.25;;;3.93;79.06
7376;BME280;3728;42.266;24.944;2024-01-15T10:22:16;98907.28;;;4.44;76.82
7376;BME280;3728;42.266;24.944;2024-01-15T10:24:45;98916.00;;;4.53;77.93
7376;BME280;3728;42.266;24.944;2024-01-15T10:27:15;98914.69;;;4.56;78.26
7376;BME280;3728;42.266;24.944;2024-01-15T10:29:42;98912.91;;;4.51;77.25
7376;BME280;3728;42.266;24.944;2024-01-15T10:32:11;98899.91;;;5.22;73.33
7376;BME280;3728;42.266;24.944;2024-01-15T10:34:39;98909.41;;;4.90;74.32
7376;BME280;3728;42.266;24.944;2024-01-15T10:37:08;98898.16;;;4.75;72.46
7376;BME280;3728;42.266;24.944;2024-01-15T10:39:36;98878.44;;;4.74;72.54
7376;BME280;3728;42.266;24.944;2024-01-15T10:42:05;98866.00;;;4.71;73.98
7376;BME280;3728;42.266;24.944;2024-01-15T10:44:35;98852.31;;;4.90;71.03
7376;BME280;3728;42.266;24.944;2024-01-15T10:47:04;98851.66;;;4.79;71.39
7376;BME280;3728;42.266;24.944;2024-01-15T10:49:32;98849.00;;;4.84;72.25
7376;BME280;3728;42.266;24.944;2024-01-15T10:52:03;98838.94;;;4.82;71.99
7376;BME280;3728;42.266;24.944;2024-01-15T10:54:32;98831.56;;;4.90;72.81
7376;BME280;3728;42.266;24.944;2024-01-15T10:57:00;98827.72;;;5.06;73.53
7376;BME280;3728;42.266;24.944;2024-01-15T10:59:29;98827.31;;;5.17;73.38
7376;BME280;3728;42.266;24.944;2024-01-15T11:01:59;98838.94;;;5.20;74.32
7376;BME280;3728;42.266;24.944;2024-01-15T11:04:26;98856.63;;;5.36;73.31
7376;BME280;3728;42.266;24.944;2024-01-15T11:06:57;98834.78;;;5.19;73.90
7376;BME280;3728;42.266;24.944;2024-01-15T11:09:24;98829.06;;;5.22;74.66
7376;BME280;3728;42.266;24.944;2024-01-15T11:12:13;98833.47;;;5.21;74.51
7376;BME280;3728;42.266;24.944;2024-01-15T11:14:47;98842.66;;;5.51;72.84
7376;BME280;3728;42.266;24.944;2024-01-15T11:17:16;98851.06;;;5.43;74.90
7376;BME280;3728;42.266;24.944;2024-01-15T11:19:46;98851.88;;;5.76;73.90
7376;BME280;3728;42.266;24.944;2024-01-15T11:25:13;98843.34;;;6.21;72.76
7376;BME280;3728;42.266;24.944;2024-01-15T11:27:49;98830.34;;;6.35;71.84
7376;BME280;3728;42.266;24.944;2024-01-15T11:30:25;98821.78;;;6.75;70.09
7376;BME280;3728;42.266;24.944;2024-01-15T11:32:53;98808.22;;;7.36;69.65
7376;BME280;3728;42.266;24.944;2024-01-15T11:35:22;98799.88;;;7.70;64.82
7376;BME280;3728;42.266;24.944;2024-01-15T11:43:03;98793.06;;;7.91;61.94
7376;BME280;3728;42.266;24.944;2024-01-15T11:45:31;98793.56;;;8.01;61.23
7376;BME280;3728;42.266;24.944;2024-01-15T11:48:12;98805.91;;;8.09;60.10
7376;BME280;3728;42.266;24.944;2024-01-15T11:50:46;98805.31;;;7.82;60.35
7376;BME280;3728;42.266;24.944;2024-01-15T11:53:40;98795.81;;;7.64;60.13
7376;BME280;3728;42.266;24.944;2024-01-15T11:56:22;98789.81;;;7.85;60.11
7376;BME280;3728;42.266;24.944;2024-01-15T11:58:51;98798.66;;;8.37;58.55
7376;BME280;3728;42.266;24.944;2024-01-15T12:01:19;98802.19;;;8.41;57.07
7376;BME280;3728;42.266;24.944;2024-01-15T12:03:48;98794.34;;;8.33;58.15
7376;BME280;3728;42.266;24.944;2024-01-15T12:06:19;98788.13;;;8.59;58.31
7376;BME280;3728;42.266;24.944;2024-01-15T12:08:47;98788.50;;;9.01;58.01
7376;BME280;3728;42.266;24.944;2024-01-15T12:11:18;98786.78;;;9.30;56.20
7376;BME280;3728;42.266;24.944;2024-01-15T12:13:46;98792.19;;;9.34;55.21
7376;BME280;3728;42.266;24.944;2024-01-15T12:16:14;98786.00;;;9.47;54.62
7376;BME280;3728;42.266;24.944;2024-01-15T12:18:41;98781.66;;;9.77;53.91
7376;BME280;3728;42.266;24.944;2024-01-15T12:21:09;98775.09;;;10.17;52.25
7376;BME280;3728;42.266;24.944;2024-01-15T12:23:36;98764.50;;;10.43;50.79
7376;BME280;3728;42.266;24.944;2024-01-15T12:26:05;98768.16;;;10.71;50.36
7376;BME280;3728;42.266;24.944;2024-01-15T12:28:32;98763.38;;;10.73;50.04
7376;BME280;3728;42.266;24.944;2024-01-15T12:31:02;98760.72;;;11.02;49.63
7376;BME280;3728;42.266;24.944;2024-01-15T12:33:33;98758.31;;;11.30;49.69
7376;BME280;3728;42.266;24.944;2024-01-15T12:36:00;98756.47;;;11.30;48.70
7376;BME280;3728;42.266;24.944;2024-01-15T12:38:28;98746.47;;;11.24;48.41
7376;BME280;3728;42.266;24.944;2024-01-15T12:40:55;98752.66;;;10.86;49.17
7376;BME280;3728;42.266;24.944;2024-01-15T12:43:22;98728.19;;;10.62;49.92
7376;BME280;3728;42.266;24.944;2024-01-15T12:45:50;98736.13;;;10.24;50.75
7376;BME280;3728;42.266;24.944;2024-01-15T12:48:17;98732.56;;;9.82;51.51
7376;BME280;3728;42.266;24.944;2024-01-15T12:50:45;98730.03;;;9.56;51.82
7376;BME280;3728;42.266;24.944;2024-01-15T12:53:14;98726.72;;;9.85;49.45
7376;BME280;3728;42.266;24.944;2024-01-15T12:55:43;98730.94;;;9.69;50.32
7376;BME280;3728;42.266;24.944;2024-01-15T12:58:10;98728.84;;;9.45;50.09
7376;BME280;3728;42.266;24.944;2024-01-15T13:00:37;98734.56;;;9.13;50.58
7376;BME280;3728;42.266;24.944;2024-01-15T13:03:04;98737.03;;;8.84;52.11
7376;BME280;3728;42.266;24.944;2024-01-15T13:05:32;98735.19;;;8.59;53.18
7376;BME280;3728;42.266;24.944;2024-01-15T13:08:01;98731.47;;;8.60;51.96
7376;BME280;3728;42.266;24.944;2024-01-15T13:10:28;98731.31;;;8.48;52.01
7376;BME280;3728;42.266;24.944;2024-01-15T13:12:57;98728.25;;;7.98;53.92
7376;BME280;3728;42.266;24.944;2024-01-15T13:15:25;98713.19;;;7.86;54.38
7376;BME280;3728;42.266;24.944;2024-01-15T13:17:52;98704.47;;;7.60;55.29
7376;BME280;3728;42.266;24.944;2024-01-15T13:20:19;98699.84;;;7.57;55.70
7376;BME280;3728;42.266;24.944;2024-01-15T13:22:47;98707.88;;;7.69;55.52
7376;BME280;3728;42.266;24.944;2024-01-15T13:25:16;98702.69;;;7.47;56.61
7376;BME280;3728;42.266;24.944;2024-01-15T13:27:43;98683.31;;;7.31;58.35